sensor_id;sensor_type;location;lat;lon;timestamp;P1;durP1;ratioP1;P2;durP2;ratioP2
21814;SDS011;11069;48.988;8.450;2023-09-08T00:00:55;8.57;;;5.45;;
21814;SDS011;11069;48.988;8.450;2023-09-08T00:03:21;6.35;;;5.05;;
21814;SDS011;11069;48.988;8.450;2023-09-08T00:05:47;6.85;;;5.38;;
21814;SDS011;11069;48.988;8.450;2023-09-08T00:08:13;6.45;;;5.10;;
21814;SDS011;11069;48.988;8.450;2023-09-08T00:10:38;6.22;;;4.85;;
21814;SDS011;11069;48.988;8.450;2023-09-08T00:13:04;5.50;;;4.90;;
21814;SDS011;11069;48.988;8.450;2023-09-08T00:15:29;9.23;;;5.82;;
21814;SDS011;11069;48.988;8.450;2023-09-08T00:17:55;7.10;;;5.45;;
21814;SDS011;11069;48.988;8.450;2023-09-08T00:20:21;5.90;;;5.30;;
21814;SDS011;11069;48.988;8.450;2023-09-08T00:22:47;5.20;;;4.70;;
21814;SDS011;11069;48.988;8.450;2023-09-08T00:25:13;7.07;;;5.38;;
21814;SDS011;11069;48.988;8.450;2023-09-08T00:27:39;6.28;;;5.30;;
21814;SDS011;11069;48.988;8.450;2023-09-08T00:30:05;6.97;;;5.18;;
21814;SDS011;11069;48.988;8.450;2023-09-08T00:32:31;5.88;;;4.95;;
21814;SDS011;11069;48.988;8.450;2023-09-08T00:34:57;6.55;;;5.43;;
21814;SDS011;11069;48.988;8.450;2023-09-08T00:37:22;8.43;;;5.00;;
21814;SDS011;11069;48.988;8.450;2023-09-08T00:39:49;9.05;;;4.90;;
21814;SDS011;11069;48.988;8.450;2023-09-08T00:42:15;6.63;;;5.15;;
21814;SDS011;11069;48.988;8.450;2023-09-08T00:44:40;5.75;;;5.15;;
21814;SDS011;11069;48.988;8.450;2023-09-08T00:47:06;8.70;;;5.43;;
21814;SDS011;11069;48.988;8.450;2023-09-08T00:49:32;6.88;;;5.20;;
21814;SDS011;11069;48.988;8.450;2023-09-08T00:51:57;5.78;;;4.80;;
21814;SDS011;11069;48.988;8.450;2023-09-08T00:54:23;7.55;;;5.30;;
21814;SDS011;11069;48.988;8.450;2023-09-08T00:56:49;10.20;;;5.97;;
21814;SDS011;11069;48.988;8.450;2023-09-08T00:59:22;5.90;;;5.18;;
21814;SDS011;11069;48.988;8.450;2023-09-08T01:01:48;9.07;;;5.30;;
21814;SDS011;11069;48.988;8.450;2023-09-08T01:04:14;8.43;;;5.57;;
21814;SDS011;11069;48.988;8.450;2023-09-08T01:06:39;6.40;;;4.90;;
21814;SDS011;11069;48.988;8.450;2023-09-08T01:09:05;6.47;;;5.10;;
21814;SDS011;11069;48.988;8.450;2023-09-08T01:11:31;8.07;;;5.88;;
21814;SDS011;11069;48.988;8.450;2023-09-08T01:13:57;8.85;;;5.55;;
21814;SDS011;11069;48.988;8.450;2023-09-08T01:16:22;6.65;;;5.00;;
21814;SDS011;11069;48.988;8.450;2023-09-08T01:18:48;6.25;;;5.20;;
21814;SDS011;11069;48.988;8.450;2023-09-08T01:24:11;5.75;;;5.13;;
21814;SDS011;11069;48.988;8.450;2023-09-08T01:27:15;5.70;;;5.18;;
21814;SDS011;11069;48.988;8.450;2023-09-08T01:29:43;8.95;;;5.70;;
21814;SDS011;11069;48.988;8.450;2023-09-08T01:32:10;7.38;;;5.25;;
21814;SDS011;11069;48.988;8.450;2023-09-08T01:34:36;6.57;;;5.50;;
21814;SDS011;11069;48.988;8.450;2023-09-08T01:37:04;6.47;;;5.47;;
21814;SDS011;11069;48.988;8.450;2023-09-08T01:39:31;6.60;;;5.80;;
21814;SDS011;11069;48.988;8.450;2023-09-08T01:41:57;6.68;;;6.05;;
21814;SDS011;11069;48.988;8.450;2023-09-08T01:44:22;6.10;;;5.50;;
21814;SDS011;11069;48.988;8.450;2023-09-08T01:46:48;5.97;;;5.38;;
21814;SDS011;11069;48.988;8.450;2023-09-08T01:49:16;5.93;;;5.30;;
21814;SDS011;11069;48.988;8.450;2023-09-08T01:51:42;6.25;;;5.63;;
21814;SDS011;11069;48.988;8.450;2023-09-08T01:54:07;5.95;;;5.32;;
21814;SDS011;11069;48.988;8.450;2023-09-08T01:56:33;6.43;;;5.57;;
21814;SDS011;11069;48.988;8.450;2023-09-08T01:58:58;6.20;;;5.60;;
21814;SDS011;11069;48.988;8.450;2023-09-08T02:01:24;6.22;;;5.63;;
21814;SDS011;11069;48.988;8.450;2023-09-08T02:03:50;7.82;;;6.47;;
21814;SDS011;11069;48.988;8.450;2023-09-08T02:06:16;7.05;;;5.95;;
21814;SDS011;11069;48.988;8.450;2023-09-08T02:08:41;6.97;;;5.43;;
21814;SDS011;11069;48.988;8.450;2023-09-08T02:11:07;7.25;;;5.97;;
21814;SDS011;11069;48.988;8.450;2023-09-08T02:13:33;9.95;;;6.32;;
21814;SDS011;11069;48.988;8.450;2023-09-08T02:15:58;7.07;;;5.80;;
21814;SDS011;11069;48.988;8.450;2023-09-08T02:18:25;6.97;;;6.25;;
21814;SDS011;11069;48.988;8.450;2023-09-08T02:20:50;7.55;;;6.30;;
21814;SDS011;11069;48.988;8.450;2023-09-08T02:23:16;9.07;;;6.05;;
21814;SDS011;11069;48.988;8.450;2023-09-08T02:25:42;8.80;;;6.40;;
21814;SDS011;11069;48.988;8.450;2023-09-08T02:28:07;9.52;;;6.70;;
21814;SDS011;11069;48.988;8.450;2023-09-08T02:30:33;10.43;;;6.00;;
21814;SDS011;11069;48.988;8.450;2023-09-08T02:32:58;7.30;;;6.60;;
21814;SDS011;11069;48.988;8.450;2023-09-08T02:35:24;8.73;;;7.13;;
21814;SDS011;11069;48.988;8.450;2023-09-08T02:37:50;7.32;;;6.50;;
21814;SDS011;11069;48.988;8.450;2023-09-08T02:40:15;7.53;;;6.18;;
21814;SDS011;11069;48.988;8.450;2023-09-08T02:42:41;11.82;;;6.72;;
21814;SDS011;11069;48.988;8.450;2023-09-08T02:45:07;7.30;;;6.60;;
21814;SDS011;11069;48.988;8.450;2023-09-08T02:47:32;8.57;;;7.00;;
21814;SDS011;11069;48.988;8.450;2023-09-08T02:49:58;7.63;;;6.82;;
21814;SDS011;11069;48.988;8.450;2023-09-08T02:52:23;8.25;;;7.10;;
21814;SDS011;11069;48.988;8.450;2023-09-08T02:54:49;9.55;;;7.95;;
21814;SDS011;11069;48.988;8.450;2023-09-08T02:57:15;7.97;;;7.18;;
21814;SDS011;11069;48.988;8.450;2023-09-08T02:59:40;7.72;;;6.78;;
21814;SDS011;11069;48.988;8.450;2023-09-08T03:02:06;8.13;;;7.30;;
21814;SDS011;11069;48.988;8.450;2023-09-08T03:04:32;7.60;;;6.82;;
21814;SDS011;11069;48.988;8.450;2023-09-08T03:06:57;8.23;;;7.32;;
21814;SDS011;11069;48.988;8.450;2023-09-08T03:09:23;8.15;;;7.35;;
21814;SDS011;11069;48.988;8.450;2023-09-08T03:11:49;9.90;;;7.40;;
21814;SDS011;11069;48.988;8.450;2023-09-08T03:14:14;8.43;;;7.03;;
21814;SDS011;11069;48.988;8.450;2023-09-08T03:16:40;9.02;;;7.57;;
21814;SDS011;11069;48.988;8.450;2023-09-08T03:19:06;8.30;;;7.22;;
21814;SDS011;11069;48.988;8.450;2023-09-08T03:21:31;7.95;;;7.15;;
21814;SDS011;11069;48.988;8.450;2023-09-08T03:23:57;8.57;;;7.20;;
21814;SDS011;11069;48.988;8.450;2023-09-08T03:26:22;8.85;;;7.82;;
21814;SDS011;11069;48.988;8.450;2023-09-08T03:28:48;8.23;;;7.30;;
21814;SDS011;11069;48.988;8.450;2023-09-08T03:31:14;8.55;;;7.65;;
21814;SDS011;11069;48.988;8.450;2023-09-08T03:33:39;9.05;;;7.80;;
21814;SDS011;11069;48.988;8.450;2023-09-08T03:36:05;10.38;;;7.72;;
21814;SDS011;11069;48.988;8.450;2023-09-08T03:38:31;9.20;;;7.72;;
21814;SDS011;11069;48.988;8.450;2023-09-08T03:40:56;8.95;;;8.05;;
21814;SDS011;11069;48.988;8.450;2023-09-08T03:43:22;8.82;;;7.90;;
21814;SDS011;11069;48.988;8.450;2023-09-08T03:45:48;8.93;;;8.02;;
21814;SDS011;11069;48.988;8.450;2023-09-08T03:48:13;9.60;;;8.60;;
21814;SDS011;11069;48.988;8.450;2023-09-08T03:50:39;9.50;;;8.45;;
21814;SDS011;11069;48.988;8.450;2023-09-08T03:53:05;10.23;;;8.45;;
21814;SDS011;11069;48.988;8.450;2023-09-08T03:55:31;9.05;;;7.85;;
21814;SDS011;11069;48.988;8.450;2023-09-08T03:57:56;12.35;;;8.82;;
21814;SDS011;11069;48.988;8.450;2023-09-08T04:00:22;9.13;;;8.20;;
21814;SDS011;11069;48.988;8.450;2023-09-08T04:02:48;10.95;;;8.73;;
21814;SDS011;11069;48.988;8.450;2023-09-08T04:05:14;9.73;;;7.75;;
21814;SDS011;11069;48.988;8.450;2023-09-08T04:07:46;9.55;;;8.07;;
21814;SDS011;11069;48.988;8.450;2023-09-08T04:10:12;9.45;;;8.38;;
21814;SDS011;11069;48.988;8.450;2023-09-08T04:12:39;8.23;;;7.32;;
21814;SDS011;11069;48.988;8.450;2023-09-08T04:15:05;7.70;;;7.00;;
21814;SDS011;11069;48.988;8.450;2023-09-08T04:17:31;14.30;;;8.48;;
21814;SDS011;11069;48.988;8.450;2023-09-08T04:19:57;10.65;;;8.43;;
21814;SDS011;11069;48.988;8.450;2023-09-08T04:22:22;10.27;;;8.27;;
21814;SDS011;11069;48.988;8.450;2023-09-08T04:24:48;9.25;;;8.35;;
21814;SDS011;11069;48.988;8.450;2023-09-08T04:27:13;10.63;;;8.40;;
21814;SDS011;11069;48.988;8.450;2023-09-08T04:29:39;8.93;;;8.02;;
21814;SDS011;11069;48.988;8.450;2023-09-08T04:32:05;10.88;;;8.88;;
21814;SDS011;11069;48.988;8.450;2023-09-08T04:34:40;10.45;;;8.45;;
21814;SDS011;11069;48.988;8.450;2023-09-08T04:37:07;10.80;;;9.13;;
21814;SDS011;11069;48.988;8.450;2023-09-08T04:39:33;10.73;;;8.70;;
21814;SDS011;11069;48.988;8.450;2023-09-08T04:42:00;10.15;;;8.77;;
21814;SDS011;11069;48.988;8.450;2023-09-08T04:44:26;9.25;;;8.23;;
21814;SDS011;11069;48.988;8.450;2023-09-08T04:46:52;10.20;;;9.18;;
21814;SDS011;11069;48.988;8.450;2023-09-08T04:49:18;10.30;;;9.15;;
21814;SDS011;11069;48.988;8.450;2023-09-08T04:51:44;12.07;;;9.02;;
21814;SDS011;11069;48.988;8.450;2023-09-08T04:54:09;9.93;;;8.93;;
21814;SDS011;11069;48.988;8.450;2023-09-08T04:56:35;10.00;;;9.00;;
21814;SDS011;11069;48.988;8.450;2023-09-08T04:59:01;9.43;;;8.45;;
21814;SDS011;11069;48.988;8.450;2023-09-08T05:01:27;9.60;;;8.70;;
21814;SDS011;11069;48.988;8.450;2023-09-08T05:03:55;11.05;;;9.55;;
21814;SDS011;11069;48.988;8.450;2023-09-08T05:06:20;10.45;;;8.93;;
21814;SDS011;11069;48.988;8.450;2023-09-08T05:08:46;9.80;;;8.57;;
21814;SDS011;11069;48.988;8.450;2023-09-08T05:11:11;10.40;;;9.27;;
21814;SDS011;11069;48.988;8.450;2023-09-08T05:13:37;9.65;;;8.57;;
21814;SDS011;11069;48.988;8.450;2023-09-08T05:16:03;10.45;;;8.82;;
21814;SDS011;11069;48.988;8.450;2023-09-08T05:18:39;10.60;;;9.10;;
21814;SDS011;11069;48.988;8.450;2023-09-08T05:21:05;9.80;;;8.35;;
21814;SDS011;11069;48.988;8.450;2023-09-08T05:23:31;10.05;;;8.95;;
21814;SDS011;11069;48.988;8.450;2023-09-08T05:25:57;11.10;;;9.25;;
21814;SDS011;11069;48.988;8.450;2023-09-08T05:28:23;12.25;;;9.40;;
21814;SDS011;11069;48.988;8.450;2023-09-08T05:30:52;11.07;;;9.82;;
21814;SDS011;11069;48.988;8.450;2023-09-08T05:33:18;10.98;;;9.07;;
21814;SDS011;11069;48.988;8.450;2023-09-08T05:35:45;14.40;;;10.35;;
21814;SDS011;11069;48.988;8.450;2023-09-08T05:38:12;13.68;;;10.20;;
21814;SDS011;11069;48.988;8.450;2023-09-08T05:40:38;13.82;;;10.23;;
21814;SDS011;11069;48.988;8.450;2023-09-08T05:43:05;11.90;;;9.88;;
21814;SDS011;11069;48.988;8.450;2023-09-08T05:45:33;9.90;;;8.90;;
21814;SDS011;11069;48.988;8.450;2023-09-08T05:47:59;11.88;;;9.75;;
21814;SDS011;11069;48.988;8.450;2023-09-08T05:50:25;11.30;;;9.50;;
21814;SDS011;11069;48.988;8.450;2023-09-08T05:52:51;12.32;;;9.63;;
21814;SDS011;11069;48.988;8.450;2023-09-08T05:55:16;10.07;;;9.07;;
21814;SDS011;11069;48.988;8.450;2023-09-08T05:57:42;13.23;;;9.13;;
21814;SDS011;11069;48.988;8.450;2023-09-08T06:00:08;12.25;;;8.70;;
21814;SDS011;11069;48.988;8.450;2023-09-08T06:02:34;9.55;;;8.55;;
21814;SDS011;11069;48.988;8.450;2023-09-08T06:05:00;9.73;;;8.13;;
21814;SDS011;11069;48.988;8.450;2023-09-08T06:07:25;9.45;;;8.45;;
21814;SDS011;11069;48.988;8.450;2023-09-08T06:09:51;8.65;;;7.80;;
21814;SDS011;11069;48.988;8.450;2023-09-08T06:12:16;10.57;;;9.05;;
21814;SDS011;11069;48.988;8.450;2023-09-08T06:14:42;10.30;;;8.70;;
21814;SDS011;11069;48.988;8.450;2023-09-08T06:17:09;11.48;;;9.63;;
21814;SDS011;11069;48.988;8.450;2023-09-08T06:19:38;9.53;;;8.47;;
21814;SDS011;11069;48.988;8.450;2023-09-08T06:22:04;11.63;;;9.63;;
21814;SDS011;11069;48.988;8.450;2023-09-08T06:24:29;10.82;;;9.30;;
21814;SDS011;11069;48.988;8.450;2023-09-08T06:26:55;10.88;;;9.77;;
21814;SDS011;11069;48.988;8.450;2023-09-08T06:29:24;12.25;;;9.50;;
21814;SDS011;11069;48.988;8.450;2023-09-08T06:31:49;10.20;;;8.77;;
21814;SDS011;11069;48.988;8.450;2023-09-08T06:34:16;10.65;;;8.57;;
21814;SDS011;11069;48.988;8.450;2023-09-08T06:36:41;9.18;;;8.13;;
21814;SDS011;11069;48.988;8.450;2023-09-08T06:39:07;9.60;;;7.53;;
21814;SDS011;11069;48.988;8.450;2023-09-08T06:41:36;9.18;;;7.45;;
21814;SDS011;11069;48.988;8.450;2023-09-08T06:44:01;11.23;;;7.65;;
21814;SDS011;11069;48.988;8.450;2023-09-08T06:46:30;10.13;;;7.13;;
21814;SDS011;11069;48.988;8.450;2023-09-08T06:48:55;10.45;;;6.85;;
21814;SDS011;11069;48.988;8.450;2023-09-08T06:51:23;9.80;;;7.00;;
21814;SDS011;11069;48.988;8.450;2023-09-08T06:53:56;7.75;;;6.85;;
21814;SDS011;11069;48.988;8.450;2023-09-08T06:56:22;8.63;;;7.72;;
21814;SDS011;11069;48.988;8.450;2023-09-08T06:58:48;8.52;;;7.35;;
21814;SDS011;11069;48.988;8.450;2023-09-08T07:01:14;11.63;;;6.93;;
21814;SDS011;11069;48.988;8.450;2023-09-08T07:03:40;8.85;;;6.93;;
21814;SDS011;11069;48.988;8.450;2023-09-08T07:06:06;7.75;;;6.75;;
21814;SDS011;11069;48.988;8.450;2023-09-08T07:08:31;9.18;;;7.32;;
21814;SDS011;11069;48.988;8.450;2023-09-08T07:10:57;9.10;;;7.57;;
21814;SDS011;11069;48.988;8.450;2023-09-08T07:13:23;11.52;;;7.63;;
21814;SDS011;11069;48.988;8.450;2023-09-08T07:15:48;8.65;;;6.65;;
21814;SDS011;11069;48.988;8.450;2023-09-08T07:18:14;9.25;;;6.85;;
21814;SDS011;11069;48.988;8.450;2023-09-08T07:20:39;8.27;;;6.30;;
21814;SDS011;11069;48.988;8.450;2023-09-08T07:23:05;11.65;;;6.70;;
21814;SDS011;11069;48.988;8.450;2023-09-08T07:25:37;8.13;;;6.05;;
21814;SDS011;11069;48.988;8.450;2023-09-08T07:28:02;8.88;;;6.68;;
21814;SDS011;11069;48.988;8.450;2023-09-08T07:30:28;8.48;;;6.28;;
21814;SDS011;11069;48.988;8.450;2023-09-08T07:32:56;8.15;;;6.35;;
21814;SDS011;11069;48.988;8.450;2023-09-08T07:35:25;7.88;;;6.85;;
21814;SDS011;11069;48.988;8.450;2023-09-08T07:37:51;10.45;;;6.60;;
21814;SDS011;11069;48.988;8.450;2023-09-08T07:40:16;7.95;;;6.28;;
21814;SDS011;11069;48.988;8.450;2023-09-08T07:42:42;8.05;;;7.18;;
21814;SDS011;11069;48.988;8.450;2023-09-08T07:45:08;7.30;;;6.35;;
21814;SDS011;11069;48.988;8.450;2023-09-08T07:47:34;8.30;;;6.35;;
21814;SDS011;11069;48.988;8.450;2023-09-08T07:52:47;9.13;;;6.85;;
21814;SDS011;11069;48.988;8.450;2023-09-08T07:55:13;8.85;;;6.47;;
21814;SDS011;11069;48.988;8.450;2023-09-08T07:57:41;10.57;;;7.50;;
21814;SDS011;11069;48.988;8.450;2023-09-08T08:00:13;12.23;;;8.25;;
21814;SDS011;11069;48.988;8.450;2023-09-08T08:02:41;9.27;;;7.93;;
21814;SDS011;11069;48.988;8.450;2023-09-08T08:05:09;11.40;;;9.15;;
21814;SDS011;11069;48.988;8.450;2023-09-08T08:07:35;8.40;;;7.60;;
21814;SDS011;11069;48.988;8.450;2023-09-08T08:10:01;8.75;;;7.85;;
21814;SDS011;11069;48.988;8.450;2023-09-08T08:12:26;8.98;;;8.07;;
21814;SDS011;11069;48.988;8.450;2023-09-08T08:14:52;9.38;;;7.32;;
21814;SDS011;11069;48.988;8.450;2023-09-08T08:17:18;9.23;;;7.82;;
21814;SDS011;11069;48.988;8.450;2023-09-08T08:19:44;8.50;;;7.25;;
21814;SDS011;11069;48.988;8.450;2023-09-08T08:22:11;7.88;;;7.03;;
21814;SDS011;11069;48.988;8.450;2023-09-08T08:24:36;9.68;;;8.00;;
21814;SDS011;11069;48.988;8.450;2023-09-08T08:27:02;15.13;;;9.02;;
21814;SDS011;11069;48.988;8.450;2023-09-08T08:29:28;10.10;;;8.55;;
21814;SDS011;11069;48.988;8.450;2023-09-08T08:31:54;9.57;;;7.80;;
21814;SDS011;11069;48.988;8.450;2023-09-08T08:34:20;9.57;;;7.50;;
21814;SDS011;11069;48.988;8.450;2023-09-08T08:36:46;9.20;;;7.65;;
21814;SDS011;11069;48.988;8.450;2023-09-08T08:39:11;8.98;;;7.25;;
21814;SDS011;11069;48.988;8.450;2023-09-08T08:41:37;9.05;;;7.60;;
21814;SDS011;11069;48.988;8.450;2023-09-08T08:44:05;11.43;;;8.00;;
21814;SDS011;11069;48.988;8.450;2023-09-08T08:46:33;10.10;;;7.35;;
21814;SDS011;11069;48.988;8.450;2023-09-08T08:49:01;9.57;;;7.25;;
21814;SDS011;11069;48.988;8.450;2023-09-08T08:51:32;10.07;;;7.50;;
21814;SDS011;11069;48.988;8.450;2023-09-08T08:53:57;12.57;;;7.75;;
21814;SDS011;11069;48.988;8.450;2023-09-08T08:56:25;10.15;;;7.93;;
21814;SDS011;11069;48.988;8.450;2023-09-08T08:58:51;9.82;;;8.20;;
21814;SDS011;11069;48.988;8.450;2023-09-08T09:01:17;10.15;;;7.60;;
21814;SDS011;11069;48.988;8.450;2023-09-08T09:03:46;7.57;;;6.78;;
21814;SDS011;11069;48.988;8.450;2023-09-08T09:06:15;8.40;;;7.53;;
21814;SDS011;11069;48.988;8.450;2023-09-08T09:08:44;8.15;;;7.35;;
21814;SDS011;11069;48.988;8.450;2023-09-08T09:11:10;8.35;;;7.50;;
21814;SDS011;11069;48.988;8.450;2023-09-08T09:13:37;8.60;;;7.35;;
21814;SDS011;11069;48.988;8.450;2023-09-08T09:16:02;8.85;;;7.65;;
21814;SDS011;11069;48.988;8.450;2023-09-08T09:18:29;8.98;;;7.65;;
21814;SDS011;11069;48.988;8.450;2023-09-08T09:20:57;10.20;;;7.20;;
21814;SDS011;11069;48.988;8.450;2023-09-08T09:25:57;8.10;;;6.78;;
21814;SDS011;11069;48.988;8.450;2023-09-08T09:28:24;10.70;;;7.22;;
21814;SDS011;11069;48.988;8.450;2023-09-08T09:30:51;8.00;;;7.20;;
21814;SDS011;11069;48.988;8.450;2023-09-08T09:33:19;8.23;;;7.13;;
21814;SDS011;11069;48.988;8.450;2023-09-08T09:35:47;9.23;;;7.45;;
21814;SDS011;11069;48.988;8.450;2023-09-08T09:38:14;11.48;;;7.35;;
21814;SDS011;11069;48.988;8.450;2023-09-08T09:40:41;8.68;;;7.00;;
21814;SDS011;11069;48.988;8.450;2023-09-08T09:43:08;9.38;;;7.32;;
21814;SDS011;11069;48.988;8.450;2023-09-08T09:45:35;7.57;;;6.80;;
21814;SDS011;11069;48.988;8.450;2023-09-08T09:48:02;9.68;;;7.60;;
21814;SDS011;11069;48.988;8.450;2023-09-08T09:50:33;7.85;;;7.05;;
21814;SDS011;11069;48.988;8.450;2023-09-08T09:53:01;8.07;;;7.35;;
21814;SDS011;11069;48.988;8.450;2023-09-08T09:55:28;9.65;;;7.25;;
21814;SDS011;11069;48.988;8.450;2023-09-08T09:57:55;7.82;;;6.97;;
21814;SDS011;11069;48.988;8.450;2023-09-08T10:00:23;7.93;;;6.85;;
21814;SDS011;11069;48.988;8.450;2023-09-08T10:02:53;11.43;;;7.25;;
21814;SDS011;11069;48.988;8.450;2023-09-08T10:05:20;8.90;;;7.57;;
21814;SDS011;11069;48.988;8.450;2023-09-08T10:07:49;9.07;;;8.05;;
21814;SDS011;11069;48.988;8.450;2023-09-08T10:10:15;15.70;;;9.10;;
21814;SDS011;11069;48.988;8.450;2023-09-08T10:12:45;7.78;;;6.97;;
21814;SDS011;11069;48.988;8.450;2023-09-08T10:15:17;10.93;;;7.13;;
21814;SDS011;11069;48.988;8.450;2023-09-08T10:17:45;9.18;;;7.13;;
21814;SDS011;11069;48.988;8.450;2023-09-08T10:20:18;7.55;;;6.85;;
21814;SDS011;11069;48.988;8.450;2023-09-08T10:22:46;9.45;;;7.97;;
21814;SDS011;11069;48.988;8.450;2023-09-08T10:25:17;8.65;;;7.65;;
21814;SDS011;11069;48.988;8.450;2023-09-08T10:27:49;8.85;;;7.90;;
21814;SDS011;11069;48.988;8.450;2023-09-08T10:30:16;9.60;;;7.03;;
21814;SDS011;11069;48.988;8.450;2023-09-08T10:32:45;7.80;;;6.93;;
21814;SDS011;11069;48.988;8.450;2023-09-08T10:35:14;8.20;;;7.40;;
21814;SDS011;11069;48.988;8.450;2023-09-08T10:37:45;8.75;;;7.53;;
21814;SDS011;11069;48.988;8.450;2023-09-08T10:40:20;7.82;;;6.82;;
21814;SDS011;11069;48.988;8.450;2023-09-08T10:42:46;9.25;;;7.53;;
21814;SDS011;11069;48.988;8.450;2023-09-08T10:45:16;9.35;;;7.57;;
21814;SDS011;11069;48.988;8.450;2023-09-08T10:50:25;7.93;;;7.13;;
21814;SDS011;11069;48.988;8.450;2023-09-08T10:53:04;11.07;;;7.80;;
21814;SDS011;11069;48.988;8.450;2023-09-08T10:55:35;8.98;;;6.68;;
21814;SDS011;11069;48.988;8.450;2023-09-08T10:58:04;8.40;;;6.85;;
21814;SDS011;11069;48.988;8.450;2023-09-08T11:00:42;11.55;;;6.70;;
21814;SDS011;11069;48.988;8.450;2023-09-08T11:06:08;8.55;;;7.75;;
21814;SDS011;11069;48.988;8.450;2023-09-08T11:08:37;7.43;;;6.68;;
21814;SDS011;11069;48.988;8.450;2023-09-08T11:11:06;9.43;;;6.88;;
21814;SDS011;11069;48.988;8.450;2023-09-08T11:13:32;8.50;;;7.43;;
21814;SDS011;11069;48.988;8.450;2023-09-08T11:15:57;7.55;;;6.75;;
21814;SDS011;11069;48.988;8.450;2023-09-08T11:18:29;7.60;;;6.55;;
21814;SDS011;11069;48.988;8.450;2023-09-08T11:20:56;9.23;;;7.95;;
21814;SDS011;11069;48.988;8.450;2023-09-08T11:23:23;7.80;;;7.00;;
21814;SDS011;11069;48.988;8.450;2023-09-08T11:25:55;9.25;;;7.18;;
21814;SDS011;11069;48.988;8.450;2023-09-08T11:28:21;7.50;;;6.70;;
21814;SDS011;11069;48.988;8.450;2023-09-08T11:30:48;8.88;;;7.75;;
21814;SDS011;11069;48.988;8.450;2023-09-08T11:33:17;8.73;;;6.93;;
21814;SDS011;11069;48.988;8.450;2023-09-08T11:35:47;9.48;;;7.88;;
21814;SDS011;11069;48.988;8.450;2023-09-08T11:38:13;8.05;;;7.15;;
21814;SDS011;11069;48.988;8.450;2023-09-08T11:40:39;11.27;;;7.25;;
21814;SDS011;11069;48.988;8.450;2023-09-08T11:43:05;8.40;;;6.90;;
21814;SDS011;11069;48.988;8.450;2023-09-08T11:45:35;7.18;;;6.47;;
21814;SDS011;11069;48.988;8.450;2023-09-08T11:48:01;8.95;;;6.97;;
21814;SDS011;11069;48.988;8.450;2023-09-08T11:50:28;7.80;;;6.97;;
21814;SDS011;11069;48.988;8.450;2023-09-08T11:52:54;10.00;;;7.20;;
21814;SDS011;11069;48.988;8.450;2023-09-08T11:55:24;8.15;;;7.35;;
21814;SDS011;11069;48.988;8.450;2023-09-08T11:57:52;9.68;;;7.13;;
21814;SDS011;11069;48.988;8.450;2023-09-08T12:00:26;9.48;;;7.50;;
21814;SDS011;11069;48.988;8.450;2023-09-08T12:02:53;8.40;;;7.50;;
21814;SDS011;11069;48.988;8.450;2023-09-08T12:05:23;8.55;;;7.28;;
21814;SDS011;11069;48.988;8.450;2023-09-08T12:07:50;7.07;;;6.43;;
21814;SDS011;11069;48.988;8.450;2023-09-08T12:10:17;7.18;;;6.47;;
21814;SDS011;11069;48.988;8.450;2023-09-08T12:12:47;7.47;;;6.65;;
21814;SDS011;11069;48.988;8.450;2023-09-08T12:15:36;7.55;;;6.85;;
21814;SDS011;11069;48.988;8.450;2023-09-08T12:20:33;8.75;;;6.50;;
21814;SDS011;11069;48.988;8.450;2023-09-08T12:23:00;8.15;;;6.88;;
21814;SDS011;11069;48.988;8.450;2023-09-08T12:25:27;9.45;;;6.72;;
21814;SDS011;11069;48.988;8.450;2023-09-08T12:27:53;8.07;;;7.20;;
21814;SDS011;11069;48.988;8.450;2023-09-08T12:30:20;6.53;;;5.93;;
21814;SDS011;11069;48.988;8.450;2023-09-08T12:32:48;6.97;;;6.28;;
21814;SDS011;11069;48.988;8.450;2023-09-08T12:35:19;9.52;;;6.03;;
21814;SDS011;11069;48.988;8.450;2023-09-08T12:37:47;8.25;;;6.60;;
21814;SDS011;11069;48.988;8.450;2023-09-08T12:40:28;7.07;;;5.85;;
21814;SDS011;11069;48.988;8.450;2023-09-08T12:42:55;8.18;;;6.85;;
21814;SDS011;11069;48.988;8.450;2023-09-08T12:45:21;8.90;;;7.07;;
21814;SDS011;11069;48.988;8.450;2023-09-08T12:47:48;7.38;;;6.53;;
21814;SDS011;11069;48.988;8.450;2023-09-08T12:50:13;8.75;;;7.30;;
21814;SDS011;11069;48.988;8.450;2023-09-08T12:52:39;7.43;;;6.65;;
21814;SDS011;11069;48.988;8.450;2023-09-08T12:55:06;10.73;;;6.63;;
21814;SDS011;11069;48.988;8.450;2023-09-08T12:57:32;9.07;;;6.53;;
21814;SDS011;11069;48.988;8.450;2023-09-08T12:59:58;8.68;;;6.40;;
21814;SDS011;11069;48.988;8.450;2023-09-08T13:02:24;6.95;;;6.32;;
21814;SDS011;11069;48.988;8.450;2023-09-08T13:04:49;8.98;;;6.00;;
21814;SDS011;11069;48.988;8.450;2023-09-08T13:07:18;7.45;;;6.65;;
21814;SDS011;11069;48.988;8.450;2023-09-08T13:09:44;6.57;;;5.97;;
21814;SDS011;11069;48.988;8.450;2023-09-08T13:12:09;8.35;;;6.18;;
21814;SDS011;11069;48.988;8.450;2023-09-08T13:14:39;7.32;;;6.05;;
21814;SDS011;11069;48.988;8.450;2023-09-08T13:17:05;6.47;;;5.88;;
21814;SDS011;11069;48.988;8.450;2023-09-08T13:19:31;9.65;;;6.32;;
21814;SDS011;11069;48.988;8.450;2023-09-08T13:21:57;8.45;;;5.70;;
21814;SDS011;11069;48.988;8.450;2023-09-08T13:24:23;6.28;;;5.68;;
21814;SDS011;11069;48.988;8.450;2023-09-08T13:26:49;6.53;;;5.82;;
21814;SDS011;11069;48.988;8.450;2023-09-08T13:29:15;6.82;;;6.10;;
21814;SDS011;11069;48.988;8.450;2023-09-08T13:31:41;7.72;;;6.40;;
21814;SDS011;11069;48.988;8.450;2023-09-08T13:34:07;6.40;;;5.80;;
21814;SDS011;11069;48.988;8.450;2023-09-08T13:36:33;6.65;;;5.50;;
21814;SDS011;11069;48.988;8.450;2023-09-08T13:38:58;6.00;;;5.30;;
21814;SDS011;11069;48.988;8.450;2023-09-08T13:41:25;6.97;;;5.68;;
21814;SDS011;11069;48.988;8.450;2023-09-08T13:44:08;7.05;;;5.20;;
21814;SDS011;11069;48.988;8.450;2023-09-08T13:46:33;7.03;;;5.45;;
21814;SDS011;11069;48.988;8.450;2023-09-08T13:48:59;5.93;;;5.38;;
21814;SDS011;11069;48.988;8.450;2023-09-08T13:51:25;6.10;;;5.50;;
21814;SDS011;11069;48.988;8.450;2023-09-08T13:53:50;8.15;;;5.97;;
21814;SDS011;11069;48.988;8.450;2023-09-08T13:56:16;5.93;;;5.30;;
21814;SDS011;11069;48.988;8.450;2023-09-08T13:58:42;6.13;;;5.50;;
21814;SDS011;11069;48.988;8.450;2023-09-08T14:01:10;7.32;;;5.40;;
21814;SDS011;11069;48.988;8.450;2023-09-08T14:03:36;5.22;;;4.72;;
21814;SDS011;11069;48.988;8.450;2023-09-08T14:06:02;6.68;;;5.50;;
21814;SDS011;11069;48.988;8.450;2023-09-08T14:08:27;6.28;;;5.68;;
21814;SDS011;11069;48.988;8.450;2023-09-08T14:10:53;6.10;;;5.50;;
21814;SDS011;11069;48.988;8.450;2023-09-08T14:13:19;6.75;;;5.43;;
21814;SDS011;11069;48.988;8.450;2023-09-08T14:15:44;7.13;;;6.43;;
21814;SDS011;11069;48.988;8.450;2023-09-08T14:18:10;7.40;;;6.07;;
21814;SDS011;11069;48.988;8.450;2023-09-08T14:20:36;8.27;;;6.50;;
21814;SDS011;11069;48.988;8.450;2023-09-08T14:23:01;6.65;;;5.95;;
21814;SDS011;11069;48.988;8.450;2023-09-08T14:25:27;9.82;;;6.38;;
21814;SDS011;11069;48.988;8.450;2023-09-08T14:27:53;6.60;;;5.80;;
21814;SDS011;11069;48.988;8.450;2023-09-08T14:30:19;10.00;;;7.03;;
21814;SDS011;11069;48.988;8.450;2023-09-08T14:32:47;7.32;;;6.15;;
21814;SDS011;11069;48.988;8.450;2023-09-08T14:35:13;8.07;;;6.88;;
21814;SDS011;11069;48.988;8.450;2023-09-08T14:37:38;9.73;;;6.68;;
21814;SDS011;11069;48.988;8.450;2023-09-08T14:40:04;9.27;;;6.40;;
21814;SDS011;11069;48.988;8.450;2023-09-08T14:42:33;6.95;;;6.25;;
21814;SDS011;11069;48.988;8.450;2023-09-08T14:44:59;8.35;;;6.05;;
21814;SDS011;11069;48.988;8.450;2023-09-08T14:47:25;8.43;;;6.25;;
21814;SDS011;11069;48.988;8.450;2023-09-08T14:49:57;6.65;;;6.05;;
21814;SDS011;11069;48.988;8.450;2023-09-08T14:52:23;7.45;;;6.75;;
21814;SDS011;11069;48.988;8.450;2023-09-08T14:54:49;11.10;;;6.68;;
21814;SDS011;11069;48.988;8.450;2023-09-08T14:57:17;7.47;;;6.32;;
21814;SDS011;11069;48.988;8.450;2023-09-08T14:59:43;6.65;;;5.72;;